Time;durP1;ratioP1;P1;durP2;ratioP2;P2;SDS_P1;SDS_P2;PMS_P1;PMS_P2;Temp;Humidity;BMP_temperature;BMP_pressure;BME280_temperature;BME280_humidity;BME280_pressure;Samples;Min_cycle;Max_cycle;Signal;HPM_P1;HPM_P2
2022/10/08 00:01:14;;;;;;;13.20;5.88;;;;;;;10.48;86.01;100939.97;6244850;23;19973;-73
2022/10/08 00:04:17;;;;;;;17.38;4.93;;;;;;;10.43;85.66;100948.03;6243668;23;20073;-73
2022/10/08 00:07:21;;;;;;;;;;;;;;;10.44;85.85;100944.47;6244598;23;20046;-73
2022/10/08 00:10:24;;;;;;;13.77;5.72;;;;;;;10.46;86.00;100942.66;6244546;23;19933;-73
2022/10/08 00:13:39;;;;;;;10.73;4.53;;;;;;;10.42;86.15;100945.47;6244561;23;20054;-73
2022/10/08 00:16:42;;;;;;;13.48;3.80;;;;;;;10.43;86.72;100937.56;6244872;23;20023;-73
2022/10/08 00:19:46;;;;;;;10.65;4.93;;;;;;;10.32;86.87;100954.63;6244653;23;20046;-73
2022/10/08 00:22:49;;;;;;;11.55;3.85;;;;;;;10.30;86.65;100946.00;6244310;23;20020;-73
2022/10/08 00:25:53;;;;;;;13.77;6.00;;;;;;;10.37;86.26;100943.06;6244754;23;20031;-73
2022/10/08 00:28:57;;;;;;;;;;;;;;;10.43;85.44;100949.75;6245200;23;20059;-73
2022/10/08 00:32:02;;;;;;;10.23;3.45;;;;;;;10.37;85.91;100945.69;6244840;23;19915;-73
2022/10/08 00:35:05;;;;;;;11.07;3.65;;;;;;;10.36;85.55;100946.56;6244514;23;20023;-73
2022/10/08 00:38:09;;;;;;;7.78;3.17;;;;;;;10.24;86.46;100949.69;6244841;23;20098;-73
2022/10/08 00:41:23;;;;;;;10.70;3.10;;;;;;;10.41;85.93;100959.47;6244741;23;20023;-73
2022/10/08 00:45:13;;;;;;;7.43;3.15;;;;;;;10.34;85.56;100953.66;6227272;23;20039;-73
2022/10/08 00:48:24;;;;;;;5.72;2.33;;;;;;;10.10;85.91;100952.06;6244788;23;20027;-73
2022/10/08 00:51:30;;;;;;;6.93;3.15;;;;;;;10.04;86.22;100952.34;6244882;23;20082;-73
2022/10/08 00:54:35;;;;;;;35.03;5.03;;;;;;;9.70;88.17;100952.03;6244621;23;20027;-73
2022/10/08 00:57:39;;;;;;;9.65;3.53;;;;;;;9.73;88.55;100948.41;6246612;23;20056;-73
2022/10/08 01:00:43;;;;;;;9.70;4.35;;;;;;;9.68;88.49;100948.63;6246497;23;20070;-73
2022/10/08 01:03:47;;;;;;;11.70;3.20;;;;;;;9.86;87.72;100939.16;6246592;23;20050;-73
2022/10/08 01:07:26;;;;;;;10.35;3.42;;;;;;;9.82;87.58;100944.56;6246811;23;20060;-73
2022/10/08 01:11:00;;;;;;;12.70;3.63;;;;;;;9.74;88.34;100937.06;6246284;23;20023;-73
2022/10/08 01:14:31;;;;;;;7.65;2.92;;;;;;;9.73;87.18;100935.34;6246526;23;20023;-73
2022/10/08 01:17:59;;;;;;;10.43;3.13;;;;;;;9.67;86.84;100936.47;6246545;23;20031;-73
2022/10/08 01:21:22;;;;;;;10.52;3.33;;;;;;;9.92;86.55;100941.53;6246205;23;20026;-73
2022/10/08 01:25:31;;;;;;;13.10;2.72;;;;;;;9.75;86.60;100933.53;6246164;23;20042;-73
2022/10/08 01:28:02;;;;;;;8.85;2.47;;;;;;;9.79;85.93;100929.88;6245734;23;20027;-73
2022/10/08 01:31:13;;;;;;;6.95;2.63;;;;;;;9.72;86.62;100929.28;6246088;23;20465;-73
2022/10/08 01:34:39;;;;;;;6.55;3.17;;;;;;;9.70;86.55;100930.25;6246168;23;20026;-73
2022/10/08 01:37:45;;;;;;;7.20;2.15;;;;;;;9.71;86.18;100927.59;6245601;23;20023;-73
2022/10/08 01:40:51;;;;;;;7.55;3.33;;;;;;;9.74;85.54;100932.69;6246259;23;20038;-73
2022/10/08 01:44:03;;;;;;;7.45;2.60;;;;;;;9.71;85.56;100926.75;6246310;23;20343;-73
2022/10/08 01:47:17;;;;;;;8.52;3.28;;;;;;;9.64;85.73;100925.31;6246086;23;20023;-73
2022/10/08 01:50:27;;;;;;;5.15;2.58;;;;;;;9.79;85.50;100929.88;6246397;23;20038;-73
2022/10/08 01:53:36;;;;;;;13.90;3.28;;;;;;;9.71;84.42;100925.00;6246124;23;20023;-73
2022/10/08 01:56:43;;;;;;;8.80;2.63;;;;;;;9.76;84.46;100930.00;6246179;23;20082;-73
2022/10/08 01:59:54;;;;;;;10.40;3.22;;;;;;;9.66;85.21;100924.31;6245614;23;20098;-73
2022/10/08 02:02:57;;;;;;;12.25;2.80;;;;;;;9.61;85.41;100917.63;6245838;23;20023;-73
2022/10/08 02:06:04;;;;;;;8.65;3.33;;;;;;;9.70;84.79;100914.59;6245813;23;20059;-73
2022/10/08 02:09:09;;;;;;;5.97;2.55;;;;;;;9.65;85.25;100921.78;6245707;23;20073;-73
2022/10/08 02:12:13;;;;;;;7.88;3.50;;;;;;;9.66;85.17;100923.47;6227348;23;20027;-73
2022/10/08 02:15:21;;;;;;;9.02;3.60;;;;;;;9.58;85.49;100915.97;6245745;23;20090;-73
2022/10/08 02:18:52;;;;;;;7.05;3.10;;;;;;;9.53;85.98;100923.13;6245867;23;20027;-73
2022/10/08 02:22:00;;;;;;;7.90;2.65;;;;;;;9.57;85.20;100929.06;6245897;23;20458;-73
2022/10/08 02:25:12;;;;;;;6.43;2.92;;;;;;;9.50;84.93;100926.72;6215564;23;20399;-73
2022/10/08 02:28:25;;;;;;;5.88;2.50;;;;;;;9.53;85.26;100931.81;6179715;23;20027;-73
2022/10/08 02:31:35;;;;;;;6.28;3.15;;;;;;;9.47;85.70;100926.84;6215121;23;20404;-73
2022/10/08 02:34:53;;;;;;;7.97;2.70;;;;;;;9.66;85.43;100924.31;6215471;23;20023;-73
2022/10/08 02:38:12;;;;;;;6.82;3.38;;;;;;;9.66;85.08;100919.09;6167047;23;20028;-73
2022/10/08 02:41:19;;;;;;;7.63;3.50;;;;;;;9.62;84.72;100917.53;6185319;23;20027;-73
2022/10/08 02:44:31;;;;;;;9.10;4.47;;;;;;;9.56;84.65;100917.78;6185236;23;20086;-73
2022/10/08 02:47:37;;;;;;;11.40;3.38;;;;;;;9.54;84.58;100925.72;6184935;23;20401;-73
2022/10/08 02:50:44;;;;;;;14.75;3.58;;;;;;;9.52;85.66;100927.50;6183418;23;20051;-73
2022/10/08 02:53:48;;;;;;;15.15;2.90;;;;;;;9.36;86.68;100925.59;6183746;23;20028;-73
2022/10/08 02:57:06;;;;;;;13.93;3.20;;;;;;;9.33;86.16;100926.56;6185143;23;20055;-73
2022/10/08 03:00:10;;;;;;;7.32;2.58;;;;;;;9.22;86.31;100928.75;6185043;23;20032;-73
2022/10/08 03:03:19;;;;;;;5.70;2.92;;;;;;;9.29;85.55;100923.25;6166919;23;20056;-73
2022/10/08 03:06:25;;;;;;;9.95;2.47;;;;;;;9.24;86.37;100929.56;6185075;23;20079;-73
2022/10/08 03:09:35;;;;;;;5.20;3.25;;;;;;;9.41;85.24;100929.75;6185143;23;20091;-73
2022/10/08 03:12:39;;;;;;;7.10;3.10;;;;;;;9.37;85.25;100922.91;6184573;23;20079;-73
2022/10/08 03:15:43;;;;;;;27.90;2.65;;;;;;;9.29;85.38;100917.19;6184579;23;20059;-73
2022/10/08 03:18:49;;;;;;;13.40;2.78;;;;;;;9.18;85.93;100921.97;6184093;23;20027;-73
2022/10/08 03:21:54;;;;;;;9.90;2.72;;;;;;;9.05;86.31;100921.59;6183684;23;20086;-73
2022/10/08 03:24:58;;;;;;;4.53;2.72;;;;;;;9.10;85.88;100926.66;6211765;23;20078;-73
2022/10/08 03:28:02;;;;;;;16.75;2.85;;;;;;;9.14;86.18;100926.47;6213468;23;20027;-73
2022/10/08 03:31:05;;;;;;;8.52;2.25;;;;;;;9.02;85.83;100927.78;6214914;23;20103;-73
2022/10/08 03:34:09;;;;;;;23.95;2.83;;;;;;;8.90;86.67;100932.63;6214769;23;20104;-73
2022/10/08 03:37:12;;;;;;;6.10;2.10;;;;;;;8.80;87.16;100938.19;6195991;23;20073;-73
2022/10/08 03:40:15;;;;;;;7.22;2.03;;;;;;;8.95;86.07;100934.16;6215007;23;20054;-73
2022/10/08 03:43:19;;;;;;;;;;;;;;;8.91;85.47;100943.03;6214990;23;20094;-73
2022/10/08 03:46:22;;;;;;;8.02;2.25;;;;;;;8.89;85.53;100947.44;6214769;23;20288;-73
2022/10/08 03:49:26;;;;;;;12.50;2.50;;;;;;;8.95;84.96;100944.59;6212487;23;20027;-73
2022/10/08 03:52:29;;;;;;;8.57;2.80;;;;;;;8.89;84.92;100944.00;6212868;23;20024;-73
2022/10/08 03:55:34;;;;;;;5.55;3.22;;;;;;;8.99;84.78;100946.16;6213707;23;20055;-73
2022/10/08 03:58:38;;;;;;;7.53;2.20;;;;;;;8.91;84.84;100945.63;6214157;23;20027;-73
2022/10/08 04:01:41;;;;;;;12.82;2.65;;;;;;;8.89;85.23;100955.25;6214444;23;20119;-73
2022/10/08 04:04:45;;;;;;;5.57;2.25;;;;;;;8.99;84.03;100948.78;6215068;23;20388;-73
2022/10/08 04:07:50;;;;;;;7.40;2.15;;;;;;;8.82;85.25;100959.03;6213474;23;20078;-73
2022/10/08 04:10:55;;;;;;;6.60;2.33;;;;;;;8.95;84.82;100957.63;6214025;23;20032;-73
2022/10/08 04:13:59;;;;;;;10.68;2.70;;;;;;;8.78;85.01;100955.69;6195539;23;20073;-73
2022/10/08 04:17:03;;;;;;;6.35;2.25;;;;;;;8.72;84.75;100965.50;6213677;23;20350;-73
2022/10/08 04:20:07;;;;;;;5.10;2.05;;;;;;;8.76;84.49;100961.84;6214001;23;20023;-73
2022/10/08 04:23:10;;;;;;;8.35;2.10;;;;;;;8.66;84.37;100963.13;6213764;23;20151;-73
2022/10/08 04:26:14;;;;;;;9.00;2.42;;;;;;;8.66;84.07;100966.56;6214230;23;20459;-73
2022/10/08 04:29:17;;;;;;;9.48;2.22;;;;;;;8.65;84.13;100967.47;6214878;23;20552;-73
2022/10/08 04:32:21;;;;;;;8.88;2.42;;;;;;;8.81;83.67;100966.00;6216613;23;20154;-73
2022/10/08 04:35:24;;;;;;;;;;;;;;;8.66;84.26;100965.72;6217097;23;20063;-73
2022/10/08 04:38:27;;;;;;;12.93;2.45;;;;;;;8.59;83.82;100960.72;6216764;23;19962;-73
2022/10/08 04:41:31;;;;;;;8.00;2.15;;;;;;;8.45;84.74;100967.34;6216544;23;20436;-73
2022/10/08 04:44:35;;;;;;;7.88;1.90;;;;;;;8.51;84.60;100965.38;6216701;23;20024;-73
2022/10/08 04:47:38;;;;;;;9.65;2.00;;;;;;;8.66;83.89;100966.56;6216622;23;20086;-73
2022/10/08 04:50:42;;;;;;;6.25;2.05;;;;;;;8.59;83.65;100959.88;6216517;23;20027;-73
2022/10/08 04:53:46;;;;;;;6.85;2.03;;;;;;;8.61;83.78;100964.16;6215732;23;20395;-73
2022/10/08 04:56:49;;;;;;;4.32;1.60;;;;;;;8.54;83.81;100964.41;6215534;23;20027;-73
2022/10/08 04:59:53;;;;;;;;;;;;;;;8.56;84.21;100970.44;6216192;23;20067;-73
2022/10/08 05:02:56;;;;;;;6.57;1.95;;;;;;;8.55;84.14;100969.59;6216065;23;19954;-73
2022/10/08 05:06:00;;;;;;;;;;;;;;;8.64;83.97;100972.75;6215948;23;20468;-73
2022/10/08 05:09:03;;;;;;;;;;;;;;;8.59;84.21;100978.97;6216026;23;19934;-73
2022/10/08 05:12:07;;;;;;;4.82;1.88;;;;;;;8.41;84.68;100979.66;6215917;23;19915;-73
2022/10/08 05:15:12;;;;;;;5.13;2.00;;;;;;;8.41;85.07;100979.66;6216346;23;20384;-73
2022/10/08 05:18:17;;;;;;;6.00;2.17;;;;;;;8.47;84.63;100982.03;6214829;23;20031;-73
2022/10/08 05:21:24;;;;;;;4.07;2.05;;;;;;;8.47;84.63;100989.84;6216039;23;20027;-73
2022/10/08 05:24:28;;;;;;;7.50;3.28;;;;;;;8.61;83.62;100984.13;6215260;23;20066;-73
2022/10/08 05:27:38;;;;;;;3.50;1.65;;;;;;;8.68;83.79;100982.13;6215176;23;20456;-74
2022/10/08 05:30:43;;;;;;;5.97;2.25;;;;;;;8.59;84.02;100975.53;6198187;23;20051;-73
2022/10/08 05:33:50;;;;;;;8.68;1.80;;;;;;;8.55;83.82;100974.78;6215098;23;20071;-73
2022/10/08 05:36:53;;;;;;;6.03;1.25;;;;;;;8.58;83.75;100976.41;6214741;23;20100;-73
2022/10/08 05:39:56;;;;;;;6.65;1.70;;;;;;;8.59;83.40;100991.16;6215093;23;20028;-73
2022/10/08 05:43:02;;;;;;;6.13;1.63;;;;;;;8.62;83.35;100978.03;6211239;23;20075;-73
2022/10/08 05:46:11;;;;;;;5.57;1.98;;;;;;;8.56;84.16;100986.91;6210285;23;20517;-73
2022/10/08 05:49:20;;;;;;;5.53;1.92;;;;;;;8.54;83.49;100988.72;6209226;23;20027;-73
2022/10/08 05:52:25;;;;;;;6.40;3.85;;;;;;;8.47;83.84;100997.66;6209912;23;20048;-73
2022/10/08 05:55:29;;;;;;;6.45;2.72;;;;;;;8.40;84.32;101000.56;6211955;23;20513;-73
2022/10/08 05:58:33;;;;;;;;;;;;;;;8.22;85.35;100991.59;6211744;23;20027;-73
2022/10/08 06:01:37;;;;;;;5.10;2.15;;;;;;;8.22;85.03;100992.44;6208138;23;19934;-73
2022/10/08 06:04:41;;;;;;;9.98;2.08;;;;;;;8.38;84.72;100987.56;6208689;23;20087;-73
2022/10/08 06:07:45;;;;;;;;;;;;;;;8.34;84.50;101001.59;6209432;23;20024;-73
2022/10/08 06:10:52;;;;;;;3.65;2.28;;;;;;;8.25;84.55;101002.75;6209800;23;19914;-73
2022/10/08 06:13:58;;;;;;;9.95;3.67;;;;;;;8.32;85.22;101008.59;6208776;23;20042;-74
2022/10/08 06:17:01;;;;;;;7.55;2.70;;;;;;;8.34;84.50;101006.81;6209611;23;20027;-73
2022/10/08 06:20:06;;;;;;;8.20;3.88;;;;;;;8.49;83.90;101016.72;6210412;23;20027;-73
2022/10/08 06:23:09;;;;;;;7.28;4.00;;;;;;;8.34;84.60;101019.81;6208550;23;20031;-73
2022/10/08 06:26:13;;;;;;;;;;;;;;;8.34;84.09;101019.81;6209711;23;20023;-73
2022/10/08 06:29:17;;;;;;;5.72;2.40;;;;;;;8.47;83.47;101023.72;6208302;23;19915;-73
2022/10/08 06:32:20;;;;;;;6.55;2.85;;;;;;;8.49;83.57;101034.13;6191006;23;20060;-73
2022/10/08 06:35:24;;;;;;;5.00;2.50;;;;;;;8.37;84.15;101025.78;6209989;23;20075;-73
2022/10/08 06:38:27;;;;;;;;;;;;;;;8.44;84.21;101025.59;6210937;23;20075;-73
2022/10/08 06:41:34;;;;;;;4.72;1.80;;;;;;;8.45;84.36;101033.34;6210359;23;19914;-73
2022/10/08 06:44:37;;;;;;;7.55;1.83;;;;;;;8.53;84.52;101039.16;6210841;23;20075;-73
2022/10/08 06:47:40;;;;;;;;;;;;;;;8.66;83.75;101034.34;6211660;23;20067;-73
2022/10/08 06:50:44;;;;;;;5.85;2.45;;;;;;;8.70;83.48;101035.09;6209061;23;19965;-73
2022/10/08 06:53:56;;;;;;;7.82;5.55;;;;;;;8.95;82.68;101033.28;6209637;23;20347;-73
2022/10/08 06:57:00;;;;;;;9.38;3.03;;;;;;;8.98;82.83;101040.13;6208476;23;20031;-73
2022/10/08 07:00:03;;;;;;;4.28;1.63;;;;;;;8.74;84.10;101050.56;6210390;23;20079;-73
2022/10/08 07:03:07;;;;;;;5.28;2.80;;;;;;;8.55;85.50;101053.00;6210580;23;20043;-73
2022/10/08 07:06:11;;;;;;;7.38;2.35;;;;;;;8.68;85.19;101053.41;6210295;23;20027;-73
2022/10/08 07:09:15;;;;;;;5.60;2.72;;;;;;;8.96;84.71;101054.97;6208973;23;20075;-73
2022/10/08 07:12:18;;;;;;;6.65;2.38;;;;;;;9.06;84.04;101058.94;6209462;23;20023;-73
2022/10/08 07:15:22;;;;;;;4.38;1.60;;;;;;;8.84;84.67;101059.75;6209417;23;20024;-73
2022/10/08 07:18:25;;;;;;;9.23;1.75;;;;;;;9.03;84.98;101059.94;6209424;23;20311;-73
2022/10/08 07:21:30;;;;;;;3.90;1.63;;;;;;;9.10;85.15;101070.13;6209486;23;20076;-73
2022/10/08 07:24:34;;;;;;;4.20;1.83;;;;;;;9.38;84.66;101069.91;6209792;23;20058;-73
2022/10/08 07:27:39;;;;;;;5.00;3.00;;;;;;;9.31;84.99;101075.38;6210934;23;20023;-73
2022/10/08 07:30:42;;;;;;;4.68;1.52;;;;;;;9.50;84.56;101085.97;6210393;23;20717;-73
2022/10/08 07:33:46;;;;;;;;;;;;;;;9.48;84.25;101084.34;6209428;23;20051;-73
2022/10/08 07:36:49;;;;;;;4.10;1.70;;;;;;;9.60;84.49;101091.66;6209120;23;20232;-73
2022/10/08 07:39:54;;;;;;;6.43;1.77;;;;;;;9.68;84.58;101104.44;6209133;23;20043;-73
2022/10/08 07:43:01;;;;;;;7.18;1.75;;;;;;;9.58;84.06;101103.94;6210195;23;20051;-73
2022/10/08 07:46:05;;;;;;;5.65;2.70;;;;;;;9.57;84.58;101104.00;6210208;23;20376;-73
2022/10/08 07:49:09;;;;;;;5.05;1.48;;;;;;;9.72;84.40;101106.00;6210853;23;20027;-73
2022/10/08 07:52:12;;;;;;;5.90;1.92;;;;;;;9.67;85.41;101108.81;6189872;23;20096;-73
2022/10/08 07:55:15;;;;;;;6.28;1.73;;;;;;;9.58;85.37;101119.63;6208958;23;20090;-73
2022/10/08 07:58:22;;;;;;;9.18;2.05;;;;;;;9.49;85.93;101115.59;6190787;23;20075;-73
2022/10/08 08:01:29;;;;;;;6.30;1.58;;;;;;;9.44;87.02;101117.50;6191010;23;20100;-73
2022/10/08 08:04:32;;;;;;;6.32;2.58;;;;;;;9.32;88.02;101123.22;6209033;23;20024;-73
2022/10/08 08:07:35;;;;;;;;;;;;;;;9.31;88.60;101126.72;6210303;23;20094;-73
2022/10/08 08:10:39;;;;;;;6.22;1.50;;;;;;;9.43;88.93;101126.25;6210018;23;19931;-73
2022/10/08 08:13:47;;;;;;;5.22;2.00;;;;;;;9.66;88.05;101132.38;6208114;23;20460;-73
2022/10/08 08:16:50;;;;;;;6.50;2.38;;;;;;;9.78;87.68;101132.72;6209769;23;20024;-73
2022/10/08 08:19:54;;;;;;;;;;;;;;;9.95;87.71;101134.66;6210696;23;20400;-74
2022/10/08 08:22:59;;;;;;;5.22;1.58;;;;;;;9.97;87.38;101138.09;6207464;23;19927;-73
2022/10/08 08:26:08;;;;;;;7.03;2.10;;;;;;;10.18;87.19;101140.75;6207871;23;20091;-73
2022/10/08 08:29:15;;;;;;;10.35;1.92;;;;;;;10.36;86.23;101134.78;6208896;23;20050;-73
2022/10/08 08:32:18;;;;;;;6.07;2.15;;;;;;;10.31;86.94;101136.75;6208068;23;20510;-73
2022/10/08 08:35:22;;;;;;;4.18;1.70;;;;;;;10.54;86.46;101138.41;6207991;23;20024;-73
2022/10/08 08:38:26;;;;;;;8.05;2.30;;;;;;;10.74;85.79;101140.16;6208030;23;20027;-73
2022/10/08 08:42:13;;;;;;;10.05;2.47;;;;;;;10.93;83.63;101148.91;6207409;23;20074;-73
2022/10/08 08:45:34;;;;;;;12.10;2.63;;;;;;;10.92;85.07;101152.44;6201349;23;20076;-73
2022/10/08 08:48:44;;;;;;;11.68;6.13;;;;;;;11.09;83.97;101158.72;6213193;23;20028;-73
2022/10/08 08:51:48;;;;;;;8.85;4.05;;;;;;;11.22;82.60;101167.72;6214132;23;20340;-73
2022/10/08 08:54:53;;;;;;;8.50;3.08;;;;;;;11.34;81.45;101163.69;6213846;23;20180;-73
2022/10/08 08:58:12;;;;;;;11.60;3.30;;;;;;;11.34;80.90;101175.03;6213961;23;20507;-73
2022/10/08 09:01:47;;;;;;;10.90;2.20;;;;;;;11.38;80.74;101168.72;6213503;23;20069;-73
2022/10/08 09:05:01;;;;;;;9.63;2.20;;;;;;;11.50;80.84;101176.94;6213179;23;20123;-73
2022/10/08 09:08:22;;;;;;;7.85;1.98;;;;;;;11.60;80.38;101179.06;6213880;23;20055;-73
2022/10/08 09:11:29;;;;;;;9.20;3.22;;;;;;;11.65;80.10;101186.72;6214306;23;20334;-73
2022/10/08 09:14:37;;;;;;;9.65;3.20;;;;;;;11.71;79.92;101190.81;6214033;23;20071;-73
2022/10/08 09:17:41;;;;;;;8.07;2.58;;;;;;;11.68;79.76;101191.81;6215608;23;20094;-73
2022/10/08 09:20:46;;;;;;;5.70;1.92;;;;;;;11.81;79.77;101199.97;6216165;23;20023;-73
2022/10/08 09:23:49;;;;;;;9.88;2.75;;;;;;;11.85;79.48;101199.78;6215457;23;20368;-73
2022/10/08 09:26:55;;;;;;;6.93;2.03;;;;;;;12.00;79.14;101199.97;6215980;23;20043;-73
2022/10/08 09:29:59;;;;;;;7.63;2.45;;;;;;;11.98;78.71;101209.69;6209890;23;20099;-73
2022/10/08 09:33:12;;;;;;;10.93;2.78;;;;;;;12.05;79.03;101205.84;6210990;23;20023;-73
2022/10/08 09:36:32;;;;;;;6.45;1.60;;;;;;;12.07;78.65;101209.25;6212442;23;20475;-73
2022/10/08 09:39:37;;;;;;;8.38;2.08;;;;;;;12.23;77.68;101220.69;6191473;23;20043;-73
2022/10/08 09:42:41;;;;;;;7.60;1.80;;;;;;;12.32;77.58;101220.25;6191688;23;20031;-73
2022/10/08 09:45:48;;;;;;;7.45;1.65;;;;;;;12.17;77.55;101220.16;6207951;23;20062;-73
2022/10/08 09:48:53;;;;;;;10.45;2.78;;;;;;;12.23;78.04;101228.56;6209199;23;20027;-73
2022/10/08 09:52:03;;;;;;;6.50;2.20;;;;;;;12.27;78.64;101231.88;6215133;23;20104;-73
2022/10/08 09:55:26;;;;;;;7.18;2.95;;;;;;;12.34;79.67;101228.88;6215045;23;20047;-73
2022/10/08 09:58:36;;;;;;;5.70;2.20;;;;;;;12.44;79.98;101236.31;6211159;23;20027;-73
2022/10/08 10:01:48;;;;;;;6.15;2.00;;;;;;;12.40;79.73;101240.00;6210036;23;20591;-73
2022/10/08 10:04:58;;;;;;;8.25;1.88;;;;;;;12.46;79.28;101242.34;6193058;23;20035;-74
2022/10/08 10:08:05;;;;;;;8.80;2.80;;;;;;;12.61;78.96;101246.00;6211026;23;20027;-73
2022/10/08 10:11:21;;;;;;;14.23;2.70;;;;;;;12.50;78.53;101246.50;6211070;23;20523;-73
2022/10/08 10:14:50;;;;;;;5.95;2.03;;;;;;;12.59;78.15;101242.59;6210332;23;20023;-73
2022/10/08 10:18:09;;;;;;;6.85;2.00;;;;;;;12.59;78.42;101248.69;6192550;23;20059;-73
2022/10/08 10:21:22;;;;;;;8.02;2.83;;;;;;;12.85;78.15;101249.16;6209808;23;20475;-73
2022/10/08 10:24:30;;;;;;;13.48;6.60;;;;;;;12.88;77.74;101249.00;6207485;23;20027;-74
2022/10/08 10:32:25;;;;;;;7.07;2.30;;;;;;;12.88;76.94;101241.97;6193279;23;20408;-73
2022/10/08 10:36:08;;;;;;;11.57;2.60;;;;;;;12.96;76.97;101249.47;6209927;23;20056;-73
2022/10/08 10:39:34;;;;;;;10.60;2.33;;;;;;;12.85;77.37;101254.41;6209421;23;20074;-73
2022/10/08 10:42:46;;;;;;;11.45;2.90;;;;;;;12.78;77.64;101253.88;6211076;23;20361;-73
2022/10/08 10:46:09;;;;;;;10.32;2.63;;;;;;;12.93;77.03;101262.75;6174793;23;20083;-73
2022/10/08 10:49:25;;;;;;;10.73;2.83;;;;;;;12.90;76.97;101260.28;6209409;23;20103;-73
2022/10/08 10:53:00;;;;;;;9.82;3.08;;;;;;;13.03;76.94;101256.97;6210001;23;20321;-74
2022/10/08 10:56:19;;;;;;;12.02;5.32;;;;;;;13.14;75.65;101252.94;6208817;23;20471;-74
2022/10/08 10:59:35;;;;;;;9.35;4.50;;;;;;;13.19;75.90;101254.41;6207495;23;20330;-73
2022/10/08 11:03:06;;;;;;;13.02;4.13;;;;;;;13.17;75.85;101261.50;6209344;23;20113;-73
2022/10/08 11:06:55;;;;;;;11.52;6.00;;;;;;;13.21;76.08;101251.72;6210284;23;20026;-73
2022/10/08 11:10:28;;;;;;;8.73;2.05;;;;;;;13.14;75.56;101251.16;6190274;23;20028;-73
2022/10/08 11:13:43;;;;;;;11.20;3.30;;;;;;;13.19;74.29;101248.31;6209671;23;20027;-73
2022/10/08 11:17:11;;;;;;;11.27;5.30;;;;;;;13.12;75.32;101253.03;6210124;23;20027;-73
2022/10/08 11:20:51;;;;;;;8.25;3.25;;;;;;;13.36;74.40;101252.69;6209614;23;20506;-74
2022/10/08 11:24:13;;;;;;;8.07;3.13;;;;;;;13.29;73.54;101259.22;6208253;23;20031;-73
2022/10/08 11:27:41;;;;;;;7.03;2.25;;;;;;;13.24;74.08;101251.53;6209213;23;20027;-73
2022/10/08 11:31:04;;;;;;;10.50;2.50;;;;;;;13.30;73.99;101250.38;6209220;23;20022;-74
2022/10/08 11:34:27;;;;;;;7.35;2.42;;;;;;;13.38;74.12;101253.47;6209009;23;20071;-73
2022/10/08 11:38:04;;;;;;;6.82;2.67;;;;;;;13.41;73.55;101253.31;6209497;23;20028;-73
2022/10/08 11:41:24;;;;;;;9.93;3.80;;;;;;;13.48;73.22;101252.91;6208031;23;20027;-74
2022/10/08 11:44:29;;;;;;;10.68;3.75;;;;;;;13.62;72.79;101246.91;6210306;23;20025;-73
2022/10/08 11:47:47;;;;;;;7.43;2.75;;;;;;;13.71;72.18;101238.53;6190859;23;20516;-74
2022/10/08 11:50:52;;;;;;;9.00;3.13;;;;;;;13.80;71.75;101223.22;6210152;23;20104;-73
2022/10/08 11:54:17;;;;;;;11.38;3.60;;;;;;;13.95;70.55;101233.72;6208833;23;20379;-74
2022/10/08 11:57:23;;;;;;;12.45;3.17;;;;;;;14.03;68.97;101238.56;6208571;23;20091;-74
2022/10/08 12:00:45;;;;;;;8.52;2.67;;;;;;;14.25;69.14;101226.84;6208876;23;20027;-73
2022/10/08 12:04:17;;;;;;;15.32;3.35;;;;;;;14.43;68.24;101233.69;6208890;23;20075;-73
2022/10/08 12:07:25;;;;;;;9.65;2.67;;;;;;;14.60;67.60;101230.97;6209008;23;20043;-73
2022/10/08 12:10:38;;;;;;;7.85;1.90;;;;;;;14.67;67.20;101230.63;6209617;23;20027;-73
2022/10/08 12:18:30;;;;;;;8.77;2.80;;;;;;;15.06;66.07;101228.28;6209365;23;20043;-74
2022/10/08 12:21:49;;;;;;;10.13;2.65;;;;;;;15.27;65.74;101227.91;6207719;23;20031;-73
2022/10/08 12:24:55;;;;;;;8.88;2.70;;;;;;;15.33;63.88;101224.91;6208724;23;20027;-73
2022/10/08 12:28:18;;;;;;;8.32;2.10;;;;;;;15.64;62.81;101221.22;6209635;23;20027;-74
2022/10/08 12:31:38;;;;;;;6.95;3.05;;;;;;;15.69;62.00;101210.41;6207477;23;20063;-73
2022/10/08 12:34:42;;;;;;;11.50;5.80;;;;;;;15.95;60.88;101211.41;6208401;23;20582;-74
2022/10/08 12:38:17;;;;;;;8.73;2.72;;;;;;;16.20;59.42;101205.41;6207779;23;20023;-73
2022/10/08 12:41:25;;;;;;;9.18;2.25;;;;;;;16.04;59.21;101201.09;6208504;23;20092;-73
2022/10/08 12:44:48;;;;;;;9.52;2.92;;;;;;;16.35;59.27;101204.41;6208733;23;20023;-74
2022/10/08 12:48:21;;;;;;;10.40;2.22;;;;;;;16.62;59.70;101198.22;6208700;23;20455;-73
2022/10/08 12:51:37;;;;;;;8.90;2.15;;;;;;;16.43;58.22;101190.69;6209451;23;20171;-73
2022/10/08 12:54:57;;;;;;;5.97;2.13;;;;;;;16.39;57.21;101197.97;6210767;23;20028;-73
2022/10/08 12:58:01;;;;;;;6.40;2.22;;;;;;;16.52;56.37;101190.91;6211490;23;20095;-73
2022/10/08 13:01:05;;;;;;;8.43;2.28;;;;;;;16.70;57.30;101190.66;6211759;23;20456;-73
2022/10/08 13:04:08;;;;;;;7.07;1.63;;;;;;;16.65;58.34;101190.94;6211642;23;20024;-73
2022/10/08 13:07:24;;;;;;;7.03;1.98;;;;;;;16.49;57.25;101199.03;6191375;23;20351;-73
2022/10/08 13:10:28;;;;;;;8.20;1.60;;;;;;;16.69;58.53;101197.72;6211420;23;20547;-73
2022/10/08 13:13:38;;;;;;;8.85;1.90;;;;;;;16.60;54.81;101202.78;6211058;23;20027;-74
2022/10/08 13:16:46;;;;;;;7.13;2.30;;;;;;;16.73;51.86;101195.72;6211472;23;20345;-73
2022/10/08 13:20:02;;;;;;;8.88;1.88;;;;;;;16.90;49.98;101199.91;6210269;23;20078;-73
2022/10/08 13:23:45;;;;;;;6.50;1.65;;;;;;;16.93;49.98;101205.81;6211680;23;20031;-73
2022/10/08 13:26:51;;;;;;;10.52;1.80;;;;;;;17.02;49.92;101209.63;6119105;23;20028;-73
2022/10/08 13:29:55;;;;;;;7.25;1.38;;;;;;;16.77;49.85;101210.44;6119600;23;20113;-73
2022/10/08 13:33:10;;;;;;;6.80;1.65;;;;;;;16.32;49.88;101209.88;6209399;23;20024;-73
2022/10/08 13:36:20;;;;;;;7.43;2.00;;;;;;;16.04;51.06;101208.19;6212000;23;20032;-73
2022/10/08 13:39:53;;;;;;;7.68;2.22;;;;;;;16.26;50.58;101211.13;6211570;23;20078;-73
2022/10/08 13:42:58;;;;;;;15.32;4.57;;;;;;;16.10;51.33;101207.78;6193767;23;20023;-73
2022/10/08 13:46:02;;;;;;;10.45;3.55;;;;;;;16.14;50.42;101206.63;6210689;23;20067;-73
2022/10/08 13:49:26;;;;;;;5.55;1.88;;;;;;;16.26;52.01;101205.00;6194418;23;20340;-73
2022/10/08 13:52:33;;;;;;;9.18;3.03;;;;;;;16.39;50.43;101205.88;6215735;23;20066;-73
2022/10/08 13:55:37;;;;;;;12.48;5.05;;;;;;;16.56;49.66;101198.63;6215573;23;20024;-73
2022/10/08 13:58:40;;;;;;;7.63;1.98;;;;;;;16.72;49.85;101188.75;6215766;23;20071;-73
2022/10/08 14:01:44;;;;;;;10.20;4.28;;;;;;;16.83;49.63;101191.53;6215484;23;20510;-73
2022/10/08 14:04:49;;;;;;;5.85;2.15;;;;;;;17.00;50.53;101194.81;6215416;23;20348;-73
2022/10/08 14:07:57;;;;;;;5.63;1.40;;;;;;;17.00;47.72;101194.81;6215315;23;20071;-73
2022/10/08 14:11:01;;;;;;;7.20;1.60;;;;;;;16.58;48.54;101204.66;6215504;23;20468;-73
2022/10/08 14:14:04;;;;;;;8.45;2.15;;;;;;;16.27;48.97;101206.69;6215495;23;20027;-73
2022/10/08 14:17:08;;;;;;;6.65;1.38;;;;;;;16.26;48.79;101203.19;6215211;23;20027;-73
2022/10/08 14:20:14;;;;;;;5.03;1.10;;;;;;;16.42;47.57;101212.75;6207606;23;20082;-73
2022/10/08 14:23:20;;;;;;;7.53;1.42;;;;;;;16.30;47.40;101214.41;6210447;23;20031;-73
2022/10/08 14:26:25;;;;;;;8.18;3.47;;;;;;;16.28;48.05;101213.66;6195831;23;20191;-73
2022/10/08 14:29:28;;;;;;;11.20;5.20;;;;;;;16.73;47.47;101212.41;6215000;23;20387;-73
2022/10/08 14:32:31;;;;;;;9.65;3.15;;;;;;;16.52;48.54;101222.59;6214719;23;20503;-73
2022/10/08 14:35:35;;;;;;;8.20;4.03;;;;;;;16.12;49.91;101220.91;6197028;23;20094;-73
2022/10/08 14:38:38;;;;;;;6.30;1.73;;;;;;;16.36;48.96;101226.34;6215714;23;20463;-73
2022/10/08 14:41:43;;;;;;;5.95;1.17;;;;;;;16.09;49.77;101216.66;6215708;23;20027;-73
2022/10/08 14:44:46;;;;;;;5.75;1.50;;;;;;;16.39;51.53;101226.16;6215518;23;20024;-73
2022/10/08 14:47:50;;;;;;;7.88;1.77;;;;;;;16.50;49.69;101221.88;6196775;23;20026;-73
2022/10/08 14:50:56;;;;;;;11.23;4.03;;;;;;;16.70;46.69;101220.53;6215142;23;20027;-73
2022/10/08 14:53:59;;;;;;;14.38;5.13;;;;;;;16.74;45.86;101226.47;6215857;23;20023;-73
2022/10/08 14:57:03;;;;;;;14.63;5.03;;;;;;;16.61;45.35;101215.88;6214378;23;20391;-73
2022/10/08 15:00:07;;;;;;;11.77;4.53;;;;;;;16.66;44.71;101220.88;6215344;23;20523;-73